Main page
METAR-TAF:

METAR-TAF

Airports :

Tunis–Carthage International Airport

Tunis, Tunisia

latitude: 36-50N, longitude: 010-14E, elevation: 3 m

Current weather observation

The report was made 20 minutes ago, at 05:00 UTC
Wind 9 kt from the East, varying between Northeast and South/Southeast
Temperature 15°C
Humidity 82%
Pressure 1019 hPa
Visibility 10 km or more
Few clouds at a height of 2600 ft

METAR: DTTA 200500Z 10009KT 050V150 9999 FEW026 15/12 Q1019

Time: 06:20 (05:20 UTC)

Forecast

The report was made 6 hours and 20 minutes ago, at 23:00 UTC
Forecast valid from 20 at 00 UTC to 20 at 24 UTC
Wind 15 kt from the East/Southeast with gusts up to 25 kt
Visibility 10 km or more
Few clouds at a height of 2600 ft
Becoming
from 20 at 05 UTC to 20 at 07 UTC
Wind 19 kt from the Southeast with gusts up to 35 kt
Becoming
from 20 at 18 UTC to 20 at 20 UTC
Wind 16 kt from the East/Southeast with gusts up to 25 kt

TAF: DTTA 192300Z 2000/2024 12015G25KT 9999 FEW026 BECMG 2005/2007 13019G35KT BECMG 2018/2020 12016G25KT

Weather observations and forecasts of more than 4000 airports (METAR and TAF reports).

The available stations are represented by yellow and red dots on the map.

Hover mouse over dot to see the name of the station.

Then click to see weather observations and forecasts.

To change the map : click on the green buttons with a black cross to zoom in, on the green button with a dash to zoom out, or on the green arrows for adjacent maps.


METAR-TAF: